sensor_id;sensor_type;location;lat;lon;timestamp;pressure;altitude;pressure_sealevel;temperature;humidity
73624;BME280;61921;53.226;-1.296;2022-10-16T00:01:07;98961.17;;;10.76;80.64
73624;BME280;61921;53.226;-1.296;2022-10-16T00:03:31;98964.94;;;10.75;80.87
73624;BME280;61921;53.226;-1.296;2022-10-16T00:05:59;98955.23;;;10.77;80.88
73624;BME280;61921;53.226;-1.296;2022-10-16T00:08:21;98962.71;;;10.72;81.41
73624;BME280;61921;53.226;-1.296;2022-10-16T00:10:47;98965.83;;;10.75;81.53
73624;BME280;61921;53.226;-1.296;2022-10-16T00:13:12;98964.24;;;10.73;81.77
73624;BME280;61921;53.226;-1.296;2022-10-16T00:15:38;98965.55;;;10.77;81.74
73624;BME280;61921;53.226;-1.296;2022-10-16T00:18:04;98957.07;;;10.75;82.06
73624;BME280;61921;53.226;-1.296;2022-10-16T00:20:29;98965.63;;;10.78;82.17
73624;BME280;61921;53.226;-1.296;2022-10-16T00:22:54;98968.43;;;10.81;82.02
73624;BME280;61921;53.226;-1.296;2022-10-16T00:25:19;98961.75;;;10.82;81.94
73624;BME280;61921;53.226;-1.296;2022-10-16T00:27:45;98960.63;;;10.77;82.35
73624;BME280;61921;53.226;-1.296;2022-10-16T00:30:10;98954.41;;;10.72;82.75
73624;BME280;61921;53.226;-1.296;2022-10-16T00:32:36;98951.66;;;10.71;82.52
73624;BME280;61921;53.226;-1.296;2022-10-16T00:35:02;98959.35;;;10.75;82.60
73624;BME280;61921;53.226;-1.296;2022-10-16T00:37:32;98960.39;;;10.74;82.54
73624;BME280;61921;53.226;-1.296;2022-10-16T00:39:52;98962.93;;;10.76;82.40
73624;BME280;61921;53.226;-1.296;2022-10-16T00:42:18;98964.37;;;10.83;81.95
73624;BME280;61921;53.226;-1.296;2022-10-16T00:44:47;98968.00;;;10.84;81.91
73624;BME280;61921;53.226;-1.296;2022-10-16T00:47:09;98966.89;;;10.80;81.68
73624;BME280;61921;53.226;-1.296;2022-10-16T00:49:34;98972.87;;;10.83;81.53
73624;BME280;61921;53.226;-1.296;2022-10-16T00:51:59;98980.46;;;10.79;81.62
73624;BME280;61921;53.226;-1.296;2022-10-16T00:54:28;98980.07;;;10.79;81.33
73624;BME280;61921;53.226;-1.296;2022-10-16T00:56:57;98984.93;;;10.83;80.98
73624;BME280;61921;53.226;-1.296;2022-10-16T00:59:20;98988.88;;;10.82;80.81
73624;BME280;61921;53.226;-1.296;2022-10-16T01:01:41;98984.34;;;10.79;80.76
73624;BME280;61921;53.226;-1.296;2022-10-16T01:04:07;98989.95;;;10.84;80.44
73624;BME280;61921;53.226;-1.296;2022-10-16T01:06:38;98997.12;;;10.83;80.16
73624;BME280;61921;53.226;-1.296;2022-10-16T01:09:06;99004.06;;;10.90;79.98
73624;BME280;61921;53.226;-1.296;2022-10-16T01:11:30;99009.90;;;10.93;79.40
73624;BME280;61921;53.226;-1.296;2022-10-16T01:13:54;99014.75;;;11.02;78.98
73624;BME280;61921;53.226;-1.296;2022-10-16T01:16:17;99025.81;;;11.12;78.61
73624;BME280;61921;53.226;-1.296;2022-10-16T01:18:43;99016.32;;;11.17;78.13
73624;BME280;61921;53.226;-1.296;2022-10-16T01:21:08;99027.38;;;11.14;78.03
73624;BME280;61921;53.226;-1.296;2022-10-16T01:23:41;99021.36;;;11.16;77.89
73624;BME280;61921;53.226;-1.296;2022-10-16T01:28:22;99020.59;;;11.09;77.80
73624;BME280;61921;53.226;-1.296;2022-10-16T01:30:46;99012.21;;;11.14;77.59
73624;BME280;61921;53.226;-1.296;2022-10-16T01:33:16;99004.78;;;11.10;77.58
73624;BME280;61921;53.226;-1.296;2022-10-16T01:35:39;99004.25;;;11.14;77.42
73624;BME280;61921;53.226;-1.296;2022-10-16T01:38:04;99004.24;;;11.11;77.30
73624;BME280;61921;53.226;-1.296;2022-10-16T01:40:28;99014.46;;;11.19;77.06
73624;BME280;61921;53.226;-1.296;2022-10-16T01:42:56;99015.39;;;11.16;76.91
73624;BME280;61921;53.226;-1.296;2022-10-16T01:45:21;99021.98;;;11.21;76.63
73624;BME280;61921;53.226;-1.296;2022-10-16T01:47:43;99025.37;;;11.16;76.33
73624;BME280;61921;53.226;-1.296;2022-10-16T01:50:09;99020.62;;;11.29;76.08
73624;BME280;61921;53.226;-1.296;2022-10-16T01:52:37;99022.29;;;11.26;75.46
73624;BME280;61921;53.226;-1.296;2022-10-16T01:55:01;99027.81;;;11.36;75.13
73624;BME280;61921;53.226;-1.296;2022-10-16T01:57:26;99034.02;;;11.43;74.79
73624;BME280;61921;53.226;-1.296;2022-10-16T02:00:01;99037.48;;;11.47;74.47
73624;BME280;61921;53.226;-1.296;2022-10-16T02:02:18;99033.47;;;11.45;73.94
73624;BME280;61921;53.226;-1.296;2022-10-16T02:04:44;99037.55;;;11.42;74.13
73624;BME280;61921;53.226;-1.296;2022-10-16T02:07:07;99034.53;;;11.38;73.92
73624;BME280;61921;53.226;-1.296;2022-10-16T02:09:33;99039.96;;;11.42;73.58
73624;BME280;61921;53.226;-1.296;2022-10-16T02:12:00;99042.79;;;11.36;73.38
73624;BME280;61921;53.226;-1.296;2022-10-16T02:14:23;99060.90;;;11.26;73.33
73624;BME280;61921;53.226;-1.296;2022-10-16T02:16:48;99069.90;;;11.21;73.20
73624;BME280;61921;53.226;-1.296;2022-10-16T02:19:15;99077.82;;;11.23;73.24
73624;BME280;61921;53.226;-1.296;2022-10-16T02:21:42;99078.85;;;11.22;72.96
73624;BME280;61921;53.226;-1.296;2022-10-16T02:24:09;99081.80;;;11.17;73.00
73624;BME280;61921;53.226;-1.296;2022-10-16T02:26:34;99088.04;;;11.19;72.99
73624;BME280;61921;53.226;-1.296;2022-10-16T02:28:59;99090.27;;;11.20;72.97
73624;BME280;61921;53.226;-1.296;2022-10-16T02:31:24;99098.45;;;11.13;73.23
73624;BME280;61921;53.226;-1.296;2022-10-16T02:33:46;99101.23;;;11.03;73.12
73624;BME280;61921;53.226;-1.296;2022-10-16T02:36:12;99108.83;;;10.95;73.34
73624;BME280;61921;53.226;-1.296;2022-10-16T02:38:37;99112.74;;;10.93;73.22
73624;BME280;61921;53.226;-1.296;2022-10-16T02:41:03;99116.76;;;10.98;73.13
73624;BME280;61921;53.226;-1.296;2022-10-16T02:43:28;99126.71;;;10.81;73.42
73624;BME280;61921;53.226;-1.296;2022-10-16T02:45:53;99134.36;;;10.81;73.49
73624;BME280;61921;53.226;-1.296;2022-10-16T02:48:19;99135.96;;;10.86;73.11
73624;BME280;61921;53.226;-1.296;2022-10-16T02:50:44;99143.42;;;10.77;73.38
73624;BME280;61921;53.226;-1.296;2022-10-16T02:53:09;99146.16;;;10.85;72.86
73624;BME280;61921;53.226;-1.296;2022-10-16T02:55:35;99149.71;;;10.83;72.88
73624;BME280;61921;53.226;-1.296;2022-10-16T02:58:01;99154.95;;;10.80;73.13
73624;BME280;61921;53.226;-1.296;2022-10-16T03:00:26;99153.32;;;10.78;72.96
73624;BME280;61921;53.226;-1.296;2022-10-16T03:02:51;99162.89;;;10.76;73.05
73624;BME280;61921;53.226;-1.296;2022-10-16T03:05:17;99165.26;;;10.76;73.09
73624;BME280;61921;53.226;-1.296;2022-10-16T03:07:42;99172.85;;;10.75;73.19
73624;BME280;61921;53.226;-1.296;2022-10-16T03:10:08;99171.53;;;10.71;73.25
73624;BME280;61921;53.226;-1.296;2022-10-16T03:12:33;99174.55;;;10.63;73.70
73624;BME280;61921;53.226;-1.296;2022-10-16T03:14:58;99175.91;;;10.57;73.90
73624;BME280;61921;53.226;-1.296;2022-10-16T03:17:24;99193.49;;;10.61;73.89
73624;BME280;61921;53.226;-1.296;2022-10-16T03:19:50;99193.54;;;10.55;74.30
73624;BME280;61921;53.226;-1.296;2022-10-16T03:22:15;99201.77;;;10.58;74.05
73624;BME280;61921;53.226;-1.296;2022-10-16T03:24:40;99205.14;;;10.63;74.28
73624;BME280;61921;53.226;-1.296;2022-10-16T03:27:06;99207.83;;;10.49;74.72
73624;BME280;61921;53.226;-1.296;2022-10-16T03:29:31;99213.47;;;10.53;74.89
73624;BME280;61921;53.226;-1.296;2022-10-16T03:31:56;99216.01;;;10.59;74.73
73624;BME280;61921;53.226;-1.296;2022-10-16T03:34:22;99212.36;;;10.56;75.02
73624;BME280;61921;53.226;-1.296;2022-10-16T03:36:47;99221.74;;;10.54;75.36
73624;BME280;61921;53.226;-1.296;2022-10-16T03:39:13;99234.65;;;10.61;75.23
73624;BME280;61921;53.226;-1.296;2022-10-16T03:41:38;99238.12;;;10.49;75.76
73624;BME280;61921;53.226;-1.296;2022-10-16T03:44:04;99248.99;;;10.50;75.91
73624;BME280;61921;53.226;-1.296;2022-10-16T03:46:29;99248.07;;;10.54;75.94
73624;BME280;61921;53.226;-1.296;2022-10-16T03:48:55;99253.55;;;10.50;76.37
73624;BME280;61921;53.226;-1.296;2022-10-16T03:51:21;99257.54;;;10.54;76.26
73624;BME280;61921;53.226;-1.296;2022-10-16T03:53:45;99259.41;;;10.45;76.77
73624;BME280;61921;53.226;-1.296;2022-10-16T03:56:11;99269.76;;;10.53;76.66
73624;BME280;61921;53.226;-1.296;2022-10-16T03:58:36;99276.95;;;10.52;76.67
73624;BME280;61921;53.226;-1.296;2022-10-16T04:01:02;99283.95;;;10.60;76.49
73624;BME280;61921;53.226;-1.296;2022-10-16T04:03:27;99294.71;;;10.57;76.60
73624;BME280;61921;53.226;-1.296;2022-10-16T04:05:53;99296.98;;;10.47;77.01
73624;BME280;61921;53.226;-1.296;2022-10-16T04:08:18;99306.59;;;10.47;77.12
73624;BME280;61921;53.226;-1.296;2022-10-16T04:10:44;99314.39;;;10.40;77.44
73624;BME280;61921;53.226;-1.296;2022-10-16T04:13:09;99316.34;;;10.42;77.46
73624;BME280;61921;53.226;-1.296;2022-10-16T04:15:34;99328.15;;;10.41;77.51
73624;BME280;61921;53.226;-1.296;2022-10-16T04:18:00;99335.58;;;10.40;77.53
73624;BME280;61921;53.226;-1.296;2022-10-16T04:20:25;99337.87;;;10.35;77.71
73624;BME280;61921;53.226;-1.296;2022-10-16T04:22:51;99344.60;;;10.37;77.54
73624;BME280;61921;53.226;-1.296;2022-10-16T04:25:16;99347.55;;;10.34;77.65
73624;BME280;61921;53.226;-1.296;2022-10-16T04:27:42;99355.59;;;10.37;77.54
73624;BME280;61921;53.226;-1.296;2022-10-16T04:30:08;99365.27;;;10.24;78.08
73624;BME280;61921;53.226;-1.296;2022-10-16T04:32:33;99371.57;;;10.32;77.87
73624;BME280;61921;53.226;-1.296;2022-10-16T04:34:58;99372.51;;;10.37;77.33
73624;BME280;61921;53.226;-1.296;2022-10-16T04:37:24;99376.93;;;10.26;77.96
73624;BME280;61921;53.226;-1.296;2022-10-16T04:39:49;99385.92;;;10.20;78.23
73624;BME280;61921;53.226;-1.296;2022-10-16T04:42:14;99394.75;;;10.20;78.31
73624;BME280;61921;53.226;-1.296;2022-10-16T04:44:40;99402.37;;;10.26;78.02
73624;BME280;61921;53.226;-1.296;2022-10-16T04:47:05;99409.35;;;10.20;78.40
73624;BME280;61921;53.226;-1.296;2022-10-16T04:49:31;99415.21;;;10.11;78.66
73624;BME280;61921;53.226;-1.296;2022-10-16T04:52:02;99419.82;;;10.12;78.76
73624;BME280;61921;53.226;-1.296;2022-10-16T04:54:21;99425.58;;;10.05;79.02
73624;BME280;61921;53.226;-1.296;2022-10-16T04:56:47;99434.44;;;10.07;78.99
73624;BME280;61921;53.226;-1.296;2022-10-16T04:59:19;99435.08;;;10.03;79.08
73624;BME280;61921;53.226;-1.296;2022-10-16T05:01:38;99446.47;;;10.02;79.00
73624;BME280;61921;53.226;-1.296;2022-10-16T05:04:04;99454.15;;;9.99;79.01
73624;BME280;61921;53.226;-1.296;2022-10-16T05:06:29;99456.48;;;9.98;79.04
73624;BME280;61921;53.226;-1.296;2022-10-16T05:08:54;99462.82;;;10.00;78.86
73624;BME280;61921;53.226;-1.296;2022-10-16T05:11:20;99464.24;;;9.99;78.63
73624;BME280;61921;53.226;-1.296;2022-10-16T05:13:45;99469.96;;;9.98;78.66
73624;BME280;61921;53.226;-1.296;2022-10-16T05:16:10;99473.33;;;9.86;78.97
73624;BME280;61921;53.226;-1.296;2022-10-16T05:18:35;99473.43;;;9.87;78.95
73624;BME280;61921;53.226;-1.296;2022-10-16T05:21:01;99476.87;;;9.89;78.59
73624;BME280;61921;53.226;-1.296;2022-10-16T05:23:26;99483.39;;;9.87;78.74
73624;BME280;61921;53.226;-1.296;2022-10-16T05:25:53;99488.03;;;9.79;78.96
73624;BME280;61921;53.226;-1.296;2022-10-16T05:28:17;99495.02;;;9.72;79.03
73624;BME280;61921;53.226;-1.296;2022-10-16T05:30:43;99501.40;;;9.70;78.97
73624;BME280;61921;53.226;-1.296;2022-10-16T05:33:08;99512.91;;;9.69;78.93
73624;BME280;61921;53.226;-1.296;2022-10-16T05:35:34;99519.07;;;9.63;79.07
73624;BME280;61921;53.226;-1.296;2022-10-16T05:37:59;99525.35;;;9.62;79.13
73624;BME280;61921;53.226;-1.296;2022-10-16T05:40:25;99528.00;;;9.63;78.98
73624;BME280;61921;53.226;-1.296;2022-10-16T05:42:55;99536.41;;;9.51;79.02
73624;BME280;61921;53.226;-1.296;2022-10-16T05:45:16;99539.85;;;9.53;79.01
73624;BME280;61921;53.226;-1.296;2022-10-16T05:47:41;99538.94;;;9.54;78.79
73624;BME280;61921;53.226;-1.296;2022-10-16T05:50:07;99544.50;;;9.42;78.60
73624;BME280;61921;53.226;-1.296;2022-10-16T05:52:32;99543.36;;;9.46;78.19
73624;BME280;61921;53.226;-1.296;2022-10-16T05:54:57;99544.02;;;9.43;78.17
73624;BME280;61921;53.226;-1.296;2022-10-16T05:57:23;99551.10;;;9.47;77.95
73624;BME280;61921;53.226;-1.296;2022-10-16T05:59:48;99561.16;;;9.38;77.94
73624;BME280;61921;53.226;-1.296;2022-10-16T06:02:16;99566.68;;;9.38;77.72
73624;BME280;61921;53.226;-1.296;2022-10-16T06:04:39;99572.37;;;9.44;77.49
73624;BME280;61921;53.226;-1.296;2022-10-16T06:07:05;99574.25;;;9.50;77.23
73624;BME280;61921;53.226;-1.296;2022-10-16T06:09:31;99573.23;;;9.44;77.64
73624;BME280;61921;53.226;-1.296;2022-10-16T06:11:56;99577.37;;;9.39;77.80
73624;BME280;61921;53.226;-1.296;2022-10-16T06:14:21;99583.61;;;9.46;77.70
73624;BME280;61921;53.226;-1.296;2022-10-16T06:16:47;99588.94;;;9.40;77.89
73624;BME280;61921;53.226;-1.296;2022-10-16T06:19:12;99595.53;;;9.34;78.30
73624;BME280;61921;53.226;-1.296;2022-10-16T06:21:38;99598.69;;;9.32;78.39
73624;BME280;61921;53.226;-1.296;2022-10-16T06:24:04;99601.86;;;9.28;78.58
73624;BME280;61921;53.226;-1.296;2022-10-16T06:26:30;99606.75;;;9.30;78.51
73624;BME280;61921;53.226;-1.296;2022-10-16T06:28:55;99612.89;;;9.17;79.28
73624;BME280;61921;53.226;-1.296;2022-10-16T06:31:20;99617.06;;;9.14;79.40
73624;BME280;61921;53.226;-1.296;2022-10-16T06:33:45;99618.33;;;8.97;80.04
73624;BME280;61921;53.226;-1.296;2022-10-16T06:36:13;99619.96;;;8.97;80.19
73624;BME280;61921;53.226;-1.296;2022-10-16T06:38:36;99627.44;;;8.89;80.92
73624;BME280;61921;53.226;-1.296;2022-10-16T06:41:02;99629.39;;;8.95;80.55
73624;BME280;61921;53.226;-1.296;2022-10-16T06:43:29;99633.03;;;8.90;81.16
73624;BME280;61921;53.226;-1.296;2022-10-16T06:45:53;99643.27;;;8.87;81.65
73624;BME280;61921;53.226;-1.296;2022-10-16T06:48:18;99647.53;;;8.76;82.41
73624;BME280;61921;53.226;-1.296;2022-10-16T06:50:57;99651.86;;;8.84;82.25
73624;BME280;61921;53.226;-1.296;2022-10-16T06:53:09;99655.61;;;8.84;82.61
73624;BME280;61921;53.226;-1.296;2022-10-16T06:55:34;99661.40;;;8.82;82.70
73624;BME280;61921;53.226;-1.296;2022-10-16T06:58:00;99666.01;;;8.81;83.24
73624;BME280;61921;53.226;-1.296;2022-10-16T07:00:25;99670.37;;;8.90;83.02
73624;BME280;61921;53.226;-1.296;2022-10-16T07:02:51;99673.56;;;8.92;82.90
73624;BME280;61921;53.226;-1.296;2022-10-16T07:05:16;99680.44;;;9.05;82.40
73624;BME280;61921;53.226;-1.296;2022-10-16T07:07:42;99682.71;;;8.98;82.53
73624;BME280;61921;53.226;-1.296;2022-10-16T07:10:08;99687.28;;;9.07;82.26
73624;BME280;61921;53.226;-1.296;2022-10-16T07:12:32;99691.04;;;9.09;82.21
73624;BME280;61921;53.226;-1.296;2022-10-16T07:14:58;99692.79;;;9.09;82.16
73624;BME280;61921;53.226;-1.296;2022-10-16T07:17:24;99699.55;;;8.99;82.33
73624;BME280;61921;53.226;-1.296;2022-10-16T07:19:49;99705.58;;;9.20;81.69
73624;BME280;61921;53.226;-1.296;2022-10-16T07:22:14;99713.48;;;9.31;81.32
73624;BME280;61921;53.226;-1.296;2022-10-16T07:24:40;99717.52;;;9.28;81.40
73624;BME280;61921;53.226;-1.296;2022-10-16T07:27:06;99722.96;;;9.31;81.37
73624;BME280;61921;53.226;-1.296;2022-10-16T07:29:33;99731.43;;;9.37;81.13
73624;BME280;61921;53.226;-1.296;2022-10-16T07:31:56;99738.07;;;9.46;80.79
73624;BME280;61921;53.226;-1.296;2022-10-16T07:34:22;99743.75;;;9.33;81.33
73624;BME280;61921;53.226;-1.296;2022-10-16T07:36:48;99754.36;;;9.35;81.21
73624;BME280;61921;53.226;-1.296;2022-10-16T07:39:13;99757.31;;;9.32;81.27
73624;BME280;61921;53.226;-1.296;2022-10-16T07:41:39;99756.47;;;9.26;81.81
73624;BME280;61921;53.226;-1.296;2022-10-16T07:44:04;99757.08;;;9.29;81.64
73624;BME280;61921;53.226;-1.296;2022-10-16T07:46:30;99768.92;;;9.38;81.59
73624;BME280;61921;53.226;-1.296;2022-10-16T07:48:55;99775.20;;;9.42;81.62
73624;BME280;61921;53.226;-1.296;2022-10-16T07:51:23;99781.27;;;9.48;81.64
73624;BME280;61921;53.226;-1.296;2022-10-16T07:53:46;99780.70;;;9.43;81.88
73624;BME280;61921;53.226;-1.296;2022-10-16T07:56:11;99785.32;;;9.41;82.05
73624;BME280;61921;53.226;-1.296;2022-10-16T07:58:37;99793.95;;;9.48;81.91
73624;BME280;61921;53.226;-1.296;2022-10-16T08:01:04;99801.02;;;9.52;81.77
73624;BME280;61921;53.226;-1.296;2022-10-16T08:03:28;99796.61;;;9.53;81.77
73624;BME280;61921;53.226;-1.296;2022-10-16T08:05:53;99797.11;;;9.60;81.69
73624;BME280;61921;53.226;-1.296;2022-10-16T08:08:20;99798.30;;;9.64;81.80
73624;BME280;61921;53.226;-1.296;2022-10-16T08:10:44;99798.80;;;9.67;81.25
73624;BME280;61921;53.226;-1.296;2022-10-16T08:13:09;99805.39;;;9.74;81.12
73624;BME280;61921;53.226;-1.296;2022-10-16T08:15:40;99807.98;;;9.78;80.86
73624;BME280;61921;53.226;-1.296;2022-10-16T08:18:03;99807.76;;;9.95;80.74
73624;BME280;61921;53.226;-1.296;2022-10-16T08:20:26;99809.92;;;9.88;80.04
73624;BME280;61921;53.226;-1.296;2022-10-16T08:22:52;99817.51;;;10.08;79.37
73624;BME280;61921;53.226;-1.296;2022-10-16T08:25:17;99817.29;;;10.10;79.56
73624;BME280;61921;53.226;-1.296;2022-10-16T08:27:43;99821.08;;;10.17;78.75
73624;BME280;61921;53.226;-1.296;2022-10-16T08:30:09;99824.17;;;10.21;78.60
73624;BME280;61921;53.226;-1.296;2022-10-16T08:32:33;99839.73;;;10.40;78.17
73624;BME280;61921;53.226;-1.296;2022-10-16T08:34:58;99849.54;;;10.59;77.14
73624;BME280;61921;53.226;-1.296;2022-10-16T08:37:24;99861.01;;;11.06;75.64
73624;BME280;61921;53.226;-1.296;2022-10-16T08:39:50;99866.32;;;11.44;73.68
73624;BME280;61921;53.226;-1.296;2022-10-16T08:42:24;99871.63;;;11.76;72.44
73624;BME280;61921;53.226;-1.296;2022-10-16T08:47:13;99881.68;;;11.87;71.56
73624;BME280;61921;53.226;-1.296;2022-10-16T08:49:31;99885.15;;;11.96;71.57
73624;BME280;61921;53.226;-1.296;2022-10-16T08:51:57;99880.38;;;12.12;70.55
73624;BME280;61921;53.226;-1.296;2022-10-16T08:54:28;99872.89;;;12.26;69.26
73624;BME280;61921;53.226;-1.296;2022-10-16T08:56:48;99881.90;;;12.10;70.43
73624;BME280;61921;53.226;-1.296;2022-10-16T08:59:14;99885.96;;;12.06;70.51
73624;BME280;61921;53.226;-1.296;2022-10-16T09:01:41;99891.94;;;12.25;69.93
73624;BME280;61921;53.226;-1.296;2022-10-16T09:06:40;99897.54;;;12.03;69.92
73624;BME280;61921;53.226;-1.296;2022-10-16T09:09:04;99895.22;;;12.35;68.88
73624;BME280;61921;53.226;-1.296;2022-10-16T09:11:30;99891.64;;;12.67;67.30
73624;BME280;61921;53.226;-1.296;2022-10-16T09:13:50;99892.19;;;12.64;66.99
73624;BME280;61921;53.226;-1.296;2022-10-16T09:16:16;99900.46;;;12.98;66.23
73624;BME280;61921;53.226;-1.296;2022-10-16T09:18:40;99901.27;;;13.06;65.35
73624;BME280;61921;53.226;-1.296;2022-10-16T09:21:06;99901.39;;;13.06;64.39
73624;BME280;61921;53.226;-1.296;2022-10-16T09:23:35;99904.30;;;12.94;65.78
73624;BME280;61921;53.226;-1.296;2022-10-16T09:25:53;99899.13;;;12.85;65.37
73624;BME280;61921;53.226;-1.296;2022-10-16T09:28:18;99898.66;;;12.85;65.45
73624;BME280;61921;53.226;-1.296;2022-10-16T09:30:42;99899.74;;;13.02;64.90
73624;BME280;61921;53.226;-1.296;2022-10-16T09:33:09;99907.49;;;13.28;64.52
73624;BME280;61921;53.226;-1.296;2022-10-16T09:35:37;99906.79;;;13.54;63.44
73624;BME280;61921;53.226;-1.296;2022-10-16T09:37:58;99910.31;;;13.58;63.02
73624;BME280;61921;53.226;-1.296;2022-10-16T09:40:26;99912.60;;;13.41;62.82
73624;BME280;61921;53.226;-1.296;2022-10-16T09:42:49;99909.32;;;13.61;63.00
73624;BME280;61921;53.226;-1.296;2022-10-16T09:45:20;99908.30;;;13.86;62.50
73624;BME280;61921;53.226;-1.296;2022-10-16T09:47:41;99916.57;;;13.63;60.91
73624;BME280;61921;53.226;-1.296;2022-10-16T09:52:31;99936.14;;;13.57;60.70
73624;BME280;61921;53.226;-1.296;2022-10-16T09:54:57;99939.89;;;13.68;60.14
73624;BME280;61921;53.226;-1.296;2022-10-16T09:57:21;99930.29;;;13.94;59.93
73624;BME280;61921;53.226;-1.296;2022-10-16T09:59:47;99944.63;;;13.88;60.41
73624;BME280;61921;53.226;-1.296;2022-10-16T10:02:14;99944.83;;;14.17;59.51
73624;BME280;61921;53.226;-1.296;2022-10-16T10:04:40;99948.27;;;14.24;58.80
73624;BME280;61921;53.226;-1.296;2022-10-16T10:07:02;99954.72;;;13.99;59.32
73624;BME280;61921;53.226;-1.296;2022-10-16T10:09:29;99960.09;;;13.79;59.84
73624;BME280;61921;53.226;-1.296;2022-10-16T10:11:54;99969.27;;;14.22;59.32
73624;BME280;61921;53.226;-1.296;2022-10-16T10:14:23;99976.80;;;14.53;57.90
73624;BME280;61921;53.226;-1.296;2022-10-16T10:16:43;99984.43;;;14.65;58.52
73624;BME280;61921;53.226;-1.296;2022-10-16T10:19:14;99986.47;;;14.96;56.91
73624;BME280;61921;53.226;-1.296;2022-10-16T10:21:34;99997.08;;;14.78;56.80
73624;BME280;61921;53.226;-1.296;2022-10-16T10:23:59;100001.48;;;14.81;56.96
73624;BME280;61921;53.226;-1.296;2022-10-16T10:26:27;99994.77;;;15.28;56.59
73624;BME280;61921;53.226;-1.296;2022-10-16T10:28:55;100000.98;;;15.12;56.20
73624;BME280;61921;53.226;-1.296;2022-10-16T10:31:21;99998.59;;;15.06;55.29
73624;BME280;61921;53.226;-1.296;2022-10-16T10:33:44;99996.78;;;15.50;55.70
73624;BME280;61921;53.226;-1.296;2022-10-16T10:36:16;99995.33;;;15.41;54.42
73624;BME280;61921;53.226;-1.296;2022-10-16T10:38:38;99996.52;;;15.58;55.09
73624;BME280;61921;53.226;-1.296;2022-10-16T10:41:05;100000.31;;;15.78;55.05
73624;BME280;61921;53.226;-1.296;2022-10-16T10:43:33;100006.53;;;15.29;54.42
73624;BME280;61921;53.226;-1.296;2022-10-16T10:45:48;100015.01;;;15.61;55.01
73624;BME280;61921;53.226;-1.296;2022-10-16T10:48:21;100014.93;;;15.65;53.49
73624;BME280;61921;53.226;-1.296;2022-10-16T10:50:43;100014.12;;;15.68;53.80
73624;BME280;61921;53.226;-1.296;2022-10-16T10:53:10;100017.33;;;16.05;54.50
73624;BME280;61921;53.226;-1.296;2022-10-16T10:55:37;100021.92;;;16.07;54.98
73624;BME280;61921;53.226;-1.296;2022-10-16T10:58:12;100027.04;;;16.20;51.32
73624;BME280;61921;53.226;-1.296;2022-10-16T11:00:23;100022.57;;;15.83;51.08
73624;BME280;61921;53.226;-1.296;2022-10-16T11:02:48;100023.91;;;15.92;51.22
73624;BME280;61921;53.226;-1.296;2022-10-16T11:07:39;100025.14;;;15.99;50.56
73624;BME280;61921;53.226;-1.296;2022-10-16T11:10:02;100021.68;;;15.92;49.40
73624;BME280;61921;53.226;-1.296;2022-10-16T11:12:27;100021.34;;;16.05;50.00
73624;BME280;61921;53.226;-1.296;2022-10-16T11:14:56;100029.35;;;15.49;50.21
73624;BME280;61921;53.226;-1.296;2022-10-16T11:17:21;100031.32;;;15.25;51.31
73624;BME280;61921;53.226;-1.296;2022-10-16T11:19:45;100028.28;;;15.36;51.66
73624;BME280;61921;53.226;-1.296;2022-10-16T11:22:12;100018.07;;;15.85;50.65
73624;BME280;61921;53.226;-1.296;2022-10-16T11:24:39;100022.44;;;15.47;49.68
73624;BME280;61921;53.226;-1.296;2022-10-16T11:26:56;100019.46;;;15.55;50.51
73624;BME280;61921;53.226;-1.296;2022-10-16T11:29:25;100013.54;;;15.89;50.13
73624;BME280;61921;53.226;-1.296;2022-10-16T11:31:50;100013.84;;;15.93;50.13
73624;BME280;61921;53.226;-1.296;2022-10-16T11:34:21;100008.09;;;15.80;50.31
73624;BME280;61921;53.226;-1.296;2022-10-16T11:36:40;100008.52;;;16.37;50.53
73624;BME280;61921;53.226;-1.296;2022-10-16T11:39:08;100009.66;;;16.57;47.63
73624;BME280;61921;53.226;-1.296;2022-10-16T11:41:32;100011.38;;;16.56;46.88
73624;BME280;61921;53.226;-1.296;2022-10-16T11:46:21;100023.35;;;16.38;46.62
73624;BME280;61921;53.226;-1.296;2022-10-16T11:48:50;100023.71;;;16.57;46.61
73624;BME280;61921;53.226;-1.296;2022-10-16T11:51:16;100022.79;;;16.57;46.32
73624;BME280;61921;53.226;-1.296;2022-10-16T11:53:42;100026.75;;;16.84;46.21
73624;BME280;61921;53.226;-1.296;2022-10-16T11:55:59;100027.21;;;17.49;46.23
73624;BME280;61921;53.226;-1.296;2022-10-16T11:58:27;100029.77;;;17.69;45.40
73624;BME280;61921;53.226;-1.296;2022-10-16T12:00:59;100027.83;;;17.86;44.67
73624;BME280;61921;53.226;-1.296;2022-10-16T12:03:19;100025.71;;;17.70;44.63
73624;BME280;61921;53.226;-1.296;2022-10-16T12:05:57;100024.43;;;17.95;44.60
73624;BME280;61921;53.226;-1.296;2022-10-16T12:08:10;100026.32;;;18.01;44.61
73624;BME280;61921;53.226;-1.296;2022-10-16T12:10:31;100027.86;;;17.78;44.25
73624;BME280;61921;53.226;-1.296;2022-10-16T12:12:55;100030.20;;;17.94;44.32
73624;BME280;61921;53.226;-1.296;2022-10-16T12:15:24;100031.10;;;17.64;44.46
73624;BME280;61921;53.226;-1.296;2022-10-16T12:17:46;100032.05;;;17.63;44.61
73624;BME280;61921;53.226;-1.296;2022-10-16T12:20:26;100036.88;;;17.30;44.68
73624;BME280;61921;53.226;-1.296;2022-10-16T12:22:36;100040.04;;;17.39;44.64
73624;BME280;61921;53.226;-1.296;2022-10-16T12:25:01;100040.20;;;17.81;44.93
73624;BME280;61921;53.226;-1.296;2022-10-16T12:27:29;100044.59;;;17.68;44.40
73624;BME280;61921;53.226;-1.296;2022-10-16T12:29:56;100051.94;;;17.50;43.88
73624;BME280;61921;53.226;-1.296;2022-10-16T12:32:27;100055.94;;;17.63;43.96
73624;BME280;61921;53.226;-1.296;2022-10-16T12:34:43;100056.11;;;17.43;44.49
73624;BME280;61921;53.226;-1.296;2022-10-16T12:37:11;100057.04;;;17.56;44.30
73624;BME280;61921;53.226;-1.296;2022-10-16T12:39:33;100054.84;;;17.60;44.76
73624;BME280;61921;53.226;-1.296;2022-10-16T12:42:03;100056.59;;;18.05;43.92
73624;BME280;61921;53.226;-1.296;2022-10-16T12:44:24;100061.35;;;18.06;45.31
73624;BME280;61921;53.226;-1.296;2022-10-16T12:46:48;100061.96;;;17.91;44.62
73624;BME280;61921;53.226;-1.296;2022-10-16T12:49:22;100062.05;;;18.02;43.82
73624;BME280;61921;53.226;-1.296;2022-10-16T12:51:39;100068.40;;;17.70;43.34
73624;BME280;61921;53.226;-1.296;2022-10-16T12:54:14;100069.74;;;17.90;44.28